Time;durP1;ratioP1;P1;durP2;ratioP2;P2;SDS_P1;SDS_P2;PMS_P1;PMS_P2;Temp;Humidity;BMP_temperature;BMP_pressure;BME280_temperature;BME280_humidity;BME280_pressure;Samples;Min_cycle;Max_cycle;Signal;HPM_P1;HPM_P2
2022/08/10 00:02:35;;;;;;;;;;;;;;;-145.18;100.00;46672.13;5092127;28;20006;-71
2022/08/10 00:05:01;;;;;;;;;;;;;;;-145.18;100.00;46679.94;5092782;28;19936;-70
2022/08/10 00:07:26;;;;;;;;;;;;;;;-145.18;100.00;46674.06;5092048;28;19920;-71
2022/08/10 00:09:51;;;;;;;;;;;;;;;-145.18;100.00;46676.03;5092455;28;19920;-71
2022/08/10 00:12:18;;;;;;;;;;;;;;;-145.18;100.00;46674.06;5092125;28;19931;-71
2022/08/10 00:14:44;;;;;;;;;;;;;;;-145.18;100.00;46674.06;5092372;28;19970;-71
2022/08/10 00:17:09;;;;;;;;;;;;;;;-145.18;100.00;46676.03;5092062;28;19951;-71
2022/08/10 00:19:34;;;;;;;;;;;;;;;-145.18;100.00;46672.13;5091365;28;20396;-71
2022/08/10 00:21:59;;;;;;;;;;;;;;;-145.18;100.00;46677.97;5091888;28;19931;-71
2022/08/10 00:24:25;;;;;;;;;;;;;;;-145.18;100.00;46670.16;5091985;28;19964;-71
2022/08/10 00:26:50;;;;;;;;;;;;;;;-145.18;100.00;46679.94;5091911;28;19967;-71
2022/08/10 00:29:15;;;;;;;;;;;;;;;-145.18;100.00;46674.06;5092130;28;20296;-71
2022/08/10 00:31:40;;;;;;;;;;;;;;;-145.18;100.00;46677.97;5091333;28;20439;-71
2022/08/10 00:34:06;;;;;;;;;;;;;;;-145.18;100.00;46668.22;5091898;28;20357;-70
2022/08/10 00:36:31;;;;;;;;;;;;;;;-145.18;100.00;46670.16;5091188;28;19928;-71
2022/08/10 00:38:56;;;;;;;;;;;;;;;-145.18;100.00;46668.22;5092118;28;19924;-71
2022/08/10 00:41:22;;;;;;;;;;;;;;;-145.18;100.00;46670.16;5091183;28;19924;-71
2022/08/10 00:43:47;;;;;;;;;;;;;;;-145.18;100.00;46664.31;5091979;28;19963;-71
2022/08/10 00:46:12;;;;;;;;;;;;;;;-145.18;100.00;46666.25;5091621;28;20326;-71
2022/08/10 00:48:37;;;;;;;;;;;;;;;-145.18;100.00;46670.16;5091511;28;20380;-71
2022/08/10 00:51:03;;;;;;;;;;;;;;;-145.18;100.00;46666.25;5091605;28;19924;-70
2022/08/10 00:53:29;;;;;;;;;;;;;;;-145.18;100.00;46670.16;5091406;28;19916;-71
2022/08/10 00:55:54;;;;;;;;;;;;;;;-145.18;100.00;46674.06;5091717;28;20392;-71
2022/08/10 00:58:19;;;;;;;;;;;;;;;-145.18;100.00;46668.22;5091385;28;19927;-71
2022/08/10 01:00:46;;;;;;;;;;;;;;;-145.18;100.00;46668.22;5090254;28;19966;-71
2022/08/10 01:03:11;;;;;;;;;;;;;;;-145.18;100.00;46666.25;5091340;28;19965;-71
2022/08/10 01:05:42;;;;;;;;;;;;;;;-145.18;100.00;46664.31;5091202;28;19924;-71
2022/08/10 01:08:13;;;;;;;;;;;;;;;-145.18;100.00;46660.41;5091265;28;19923;-71
2022/08/10 01:10:53;;;;;;;;;;;;;;;-145.18;100.00;46668.22;5091163;28;19973;-70
2022/08/10 01:13:21;;;;;;;;;;;;;;;-145.18;100.00;46664.31;5091143;28;20343;-70
2022/08/10 01:15:47;;;;;;;;;;;;;;;-145.18;100.00;46664.31;5091541;28;19924;-70
2022/08/10 01:18:32;;;;;;;;;;;;;;;-145.18;100.00;46662.34;5091146;28;19920;-71
2022/08/10 01:21:03;;;;;;;;;;;;;;;-145.18;100.00;46666.25;5090902;28;19966;-71
2022/08/10 01:23:28;;;;;;;;;;;;;;;-145.18;100.00;46662.34;5091039;28;19924;-70
2022/08/10 01:25:58;;;;;;;;;;;;;;;-145.18;100.00;46660.41;5091372;28;19924;-70
2022/08/10 01:28:35;;;;;;;;;;;;;;;-145.18;100.00;46660.41;5090436;28;19999;-71
2022/08/10 01:31:02;;;;;;;;;;;;;;;-145.18;100.00;46660.41;5090951;28;19924;-70
2022/08/10 01:33:34;;;;;;;;;;;;;;;-145.18;100.00;46662.34;5090655;28;19912;-70
2022/08/10 01:36:10;;;;;;;;;;;;;;;-145.18;100.00;46652.59;5090894;28;19964;-70
2022/08/10 01:38:44;;;;;;;;;;;;;;;-145.18;100.00;46660.41;5090738;28;20380;-71
2022/08/10 01:41:11;;;;;;;;;;;;;;;-145.18;100.00;46650.63;5090969;28;19920;-71
2022/08/10 01:43:39;;;;;;;;;;;;;;;-145.18;100.00;46658.44;5090535;28;19927;-71
2022/08/10 01:46:06;;;;;;;;;;;;;;;-145.18;100.00;46660.41;5091134;28;19923;-70
2022/08/10 01:48:34;;;;;;;;;;;;;;;-145.18;100.00;46656.50;5090526;28;19916;-70
2022/08/10 01:51:03;;;;;;;;;;;;;;;-145.18;100.00;46652.59;5091030;28;19920;-70
2022/08/10 01:53:34;;;;;;;;;;;;;;;-145.18;100.00;46652.59;5090138;28;19926;-70
2022/08/10 01:56:00;;;;;;;;;;;;;;;-145.18;100.00;46650.63;5091052;28;19923;-71
2022/08/10 01:58:26;;;;;;;;;;;;;;;-145.18;100.00;46656.50;5089163;28;19926;-70
2022/08/10 02:03:28;;;;;;;;;;;;;;;-145.18;100.00;46652.59;5324550;22;19933;-70
2022/08/10 02:05:54;;;;;;;;;;;;;;;-145.18;100.00;46644.78;5011138;28;20008;-70
2022/08/10 02:08:20;;;;;;;;;;;;;;;-145.18;100.00;46642.81;5010798;28;20437;-70
2022/08/10 02:10:47;;;;;;;;;;;;;;;-145.18;100.00;46650.63;5010890;28;19945;-70
2022/08/10 02:13:13;;;;;;;;;;;;;;;-145.18;100.00;46646.72;5010445;28;19939;-70
2022/08/10 02:15:40;;;;;;;;;;;;;;;-145.18;100.00;46646.72;5010997;28;19932;-70
2022/08/10 02:18:05;;;;;;;;;;;;;;;-145.18;100.00;46646.72;5009153;28;19918;-70
2022/08/10 02:20:33;;;;;;;;;;;;;;;-145.18;100.00;46646.72;5010852;28;20304;-70
2022/08/10 02:23:01;;;;;;;;;;;;;;;-145.18;100.00;46646.72;5010262;28;19980;-70
2022/08/10 02:25:27;;;;;;;;;;;;;;;-145.18;100.00;46648.69;5010912;28;19922;-70
2022/08/10 02:27:53;;;;;;;;;;;;;;;-145.18;100.00;46650.63;5010563;28;19976;-69
2022/08/10 02:30:19;;;;;;;;;;;;;;;-145.18;100.00;46640.88;5010642;28;19928;-70
2022/08/10 02:32:44;;;;;;;;;;;;;;;-145.18;100.00;46644.78;5010233;28;19921;-70
2022/08/10 02:35:11;;;;;;;;;;;;;;;-145.18;100.00;46646.72;5010494;28;19945;-70
2022/08/10 02:37:37;;;;;;;;;;;;;;;-145.18;100.00;46646.72;5010620;28;20281;-70
2022/08/10 02:40:03;;;;;;;;;;;;;;;-145.18;100.00;46642.81;5010645;28;20012;-70
2022/08/10 02:42:32;;;;;;;;;;;;;;;-145.18;100.00;46644.78;5011667;28;20580;-70
2022/08/10 02:45:00;;;;;;;;;;;;;;;-145.18;100.00;46640.88;5013894;28;19917;-69
2022/08/10 02:47:26;;;;;;;;;;;;;;;-145.18;100.00;46642.81;5013756;28;20475;-70
2022/08/10 02:49:56;;;;;;;;;;;;;;;-145.18;100.00;46640.88;5014300;28;19921;-69
2022/08/10 02:52:26;;;;;;;;;;;;;;;-145.18;100.00;46677.97;5013630;28;19914;-70
2022/08/10 02:54:58;;;;;;;;;;;;;;;-145.18;100.00;46638.91;5013864;28;19972;-69
2022/08/10 02:57:27;;;;;;;;;;;;;;;-145.18;100.00;46660.41;5013631;28;19918;-70
2022/08/10 02:59:54;;;;;;;;;;;;;;;-145.18;100.00;46638.91;5014040;28;20004;-70
2022/08/10 03:02:31;;;;;;;;;;;;;;;-145.18;100.00;46638.91;5013229;28;19922;-70
2022/08/10 03:05:00;;;;;;;;;;;;;;;-145.18;100.00;46677.97;5013653;28;20390;-70
2022/08/10 03:07:27;;;;;;;;;;;;;;;-145.18;100.00;46676.03;5013324;28;19924;-69
2022/08/10 03:09:53;;;;;;;;;;;;;;;-145.18;100.00;46660.41;5013717;28;20305;-70
2022/08/10 03:12:19;;;;;;;;;;;;;;;-145.18;100.00;46677.97;5013150;28;19928;-70
2022/08/10 03:14:45;;;;;;;;;;;;;;;-145.18;100.00;46676.03;5013694;28;20540;-70
2022/08/10 03:17:11;;;;;;;;;;;;;;;-145.18;100.00;46660.41;5013140;28;20005;-70
2022/08/10 03:19:38;;;;;;;;;;;;;;;-145.18;100.00;46660.41;5013445;28;20302;-70
2022/08/10 03:22:03;;;;;;;;;;;;;;;-145.18;100.00;46660.41;5013260;28;19918;-70
2022/08/10 03:24:29;;;;;;;;;;;;;;;-145.18;100.00;46640.88;5013294;28;19929;-70
2022/08/10 03:26:55;;;;;;;;;;;;;;;-145.18;100.00;46660.41;5013600;28;19932;-70
2022/08/10 03:29:21;;;;;;;;;;;;;;;-145.18;100.00;46660.41;5012741;28;19928;-69
2022/08/10 03:31:47;;;;;;;;;;;;;;;-145.18;100.00;46660.41;5013260;28;20313;-70
2022/08/10 03:34:14;;;;;;;;;;;;;;;-145.18;100.00;46660.41;5012529;28;19913;-70
2022/08/10 03:36:39;;;;;;;;;;;;;;;-145.18;100.00;46660.41;5013254;28;20436;-69
2022/08/10 03:39:05;;;;;;;;;;;;;;;-145.18;100.00;46660.41;5012762;28;19921;-69
2022/08/10 03:41:33;;;;;;;;;;;;;;;-145.18;100.00;46660.41;5013148;28;19917;-70
2022/08/10 03:44:00;;;;;;;;;;;;;;;-145.18;100.00;46660.41;5012382;28;19918;-71
2022/08/10 03:46:27;;;;;;;;;;;;;;;-145.18;100.00;46660.41;5013001;28;20414;-69
2022/08/10 03:48:54;;;;;;;;;;;;;;;-145.18;100.00;46660.41;5012779;28;19988;-69
2022/08/10 03:51:21;;;;;;;;;;;;;;;-145.18;100.00;46660.41;5012953;28;19917;-70
2022/08/10 03:53:47;;;;;;;;;;;;;;;-145.18;100.00;46660.41;5012807;28;19960;-70
2022/08/10 03:56:13;;;;;;;;;;;;;;;-145.18;100.00;46676.03;5012702;28;19968;-70
2022/08/10 03:58:38;;;;;;;;;;;;;;;-145.18;100.00;46660.41;5012389;28;19921;-70
2022/08/10 04:01:03;;;;;;;;;;;;;;;-145.18;100.00;46660.41;5012892;28;19917;-70
2022/08/10 04:03:28;;;;;;;;;;;;;;;-145.18;100.00;46660.41;5012186;28;19937;-70
2022/08/10 04:05:54;;;;;;;;;;;;;;;-145.18;100.00;46660.41;5012776;28;19944;-70
2022/08/10 04:08:19;;;;;;;;;;;;;;;-145.18;100.00;46660.41;5012048;28;19918;-70
2022/08/10 04:10:45;;;;;;;;;;;;;;;-145.18;100.00;46660.41;5012803;28;19969;-70
2022/08/10 04:13:10;;;;;;;;;;;;;;;-145.18;100.00;46676.03;5012163;28;20352;-70
2022/08/10 04:15:35;;;;;;;;;;;;;;;-145.18;100.00;46660.41;5012793;28;20254;-69
2022/08/10 04:18:01;;;;;;;;;;;;;;;-145.18;100.00;46660.41;5011883;28;20398;-70
2022/08/10 04:20:44;;;;;;;;;;;;;;;-145.18;100.00;46660.41;5012451;28;19925;-69
2022/08/10 04:23:14;;;;;;;;;;;;;;;-145.18;100.00;46660.41;5011749;28;19925;-69
2022/08/10 04:25:40;;;;;;;;;;;;;;;-145.18;100.00;46660.41;5012464;28;20370;-69
2022/08/10 04:28:06;;;;;;;;;;;;;;;-145.18;100.00;46660.41;5011940;28;19925;-70
2022/08/10 04:30:33;;;;;;;;;;;;;;;-145.18;100.00;46660.41;5012140;28;19914;-69
2022/08/10 04:33:01;;;;;;;;;;;;;;;-145.18;100.00;46660.41;5011866;28;20408;-70
2022/08/10 04:35:27;;;;;;;;;;;;;;;-145.18;100.00;46660.41;5012114;28;19925;-70
2022/08/10 04:37:52;;;;;;;;;;;;;;;-145.18;100.00;46660.41;5011897;28;19925;-69
2022/08/10 04:40:18;;;;;;;;;;;;;;;-145.18;100.00;46660.41;5012127;28;19917;-70
2022/08/10 04:42:44;;;;;;;;;;;;;;;-145.18;100.00;46660.41;5011941;28;20385;-69
2022/08/10 04:45:11;;;;;;;;;;;;;;;-145.18;100.00;46660.41;5011774;28;19921;-70
2022/08/10 04:47:37;;;;;;;;;;;;;;;-145.18;100.00;46660.41;5011615;28;20003;-70
2022/08/10 04:50:03;;;;;;;;;;;;;;;-145.18;100.00;46660.41;5011879;28;19957;-69
2022/08/10 04:52:28;;;;;;;;;;;;;;;-145.18;100.00;46660.41;5011694;28;20011;-70
2022/08/10 04:54:54;;;;;;;;;;;;;;;-145.18;100.00;46660.41;5012052;28;20401;-70
2022/08/10 04:57:19;;;;;;;;;;;;;;;-145.18;100.00;46660.41;5011617;28;20362;-70
2022/08/10 04:59:44;;;;;;;;;;;;;;;-145.18;100.00;46660.41;5011496;28;19935;-70
2022/08/10 05:02:09;;;;;;;;;;;;;;;-145.18;100.00;46660.41;5011300;28;19924;-69
2022/08/10 05:04:34;;;;;;;;;;;;;;;-145.18;100.00;46660.41;5010688;28;20016;-70
2022/08/10 05:07:00;;;;;;;;;;;;;;;-145.18;100.00;46660.41;5011802;28;20482;-69
2022/08/10 05:09:25;;;;;;;;;;;;;;;-145.18;100.00;46660.41;5011268;28;20337;-69
2022/08/10 05:11:50;;;;;;;;;;;;;;;-145.18;100.00;46660.41;5011480;28;19921;-69
2022/08/10 05:14:15;;;;;;;;;;;;;;;-145.18;100.00;46660.41;5010930;28;19933;-69
2022/08/10 05:16:41;;;;;;;;;;;;;;;-145.18;100.00;46631.09;5011647;28;19925;-69
2022/08/10 05:19:06;;;;;;;;;;;;;;;-145.18;100.00;46660.41;5010870;28;19979;-69
2022/08/10 05:21:31;;;;;;;;;;;;;;;-145.18;100.00;46660.41;5011290;28;19929;-70
2022/08/10 05:24:03;;;;;;;;;;;;;;;-145.18;100.00;46631.09;5011089;28;19952;-69
2022/08/10 05:26:28;;;;;;;;;;;;;;;-145.18;100.00;46631.09;5011619;28;19921;-70
2022/08/10 05:28:53;;;;;;;;;;;;;;;-145.18;100.00;46660.41;5011073;28;20344;-69
2022/08/10 05:31:18;;;;;;;;;;;;;;;-145.18;100.00;46660.41;5011232;28;20360;-69
2022/08/10 05:33:44;;;;;;;;;;;;;;;-145.18;100.00;46627.19;5010872;28;19926;-70
2022/08/10 05:36:09;;;;;;;;;;;;;;;-145.18;100.00;46629.13;5010838;28;20629;-69
2022/08/10 05:38:36;;;;;;;;;;;;;;;-145.18;100.00;46633.06;5010883;28;19933;-69
2022/08/10 05:41:01;;;;;;;;;;;;;;;-145.18;100.00;46629.13;5011462;28;19967;-70
2022/08/10 05:43:27;;;;;;;;;;;;;;;-145.18;100.00;46629.13;5010594;28;20008;-69
2022/08/10 05:45:52;;;;;;;;;;;;;;;-145.18;100.00;46631.09;5011438;28;19922;-70
2022/08/10 05:48:17;;;;;;;;;;;;;;;-145.18;100.00;46629.13;5010649;28;19918;-69
2022/08/10 05:50:42;;;;;;;;;;;;;;;-145.18;100.00;46629.13;5011173;28;19973;-69
2022/08/10 05:53:08;;;;;;;;;;;;;;;-145.18;100.00;46633.06;5010570;28;19976;-69
2022/08/10 05:55:33;;;;;;;;;;;;;;;-145.18;100.00;46635.00;5011322;28;19917;-69
2022/08/10 05:57:59;;;;;;;;;;;;;;;-145.18;100.00;46627.19;5010675;28;19917;-70
2022/08/10 06:00:25;;;;;;;;;;;;;;;-145.18;100.00;46629.13;5010932;28;19928;-70
2022/08/10 06:02:56;;;;;;;;;;;;;;;-145.18;100.00;46631.09;5010592;28;19929;-70
2022/08/10 06:05:23;;;;;;;;;;;;;;;-145.18;100.00;46631.09;5010867;28;19918;-69
2022/08/10 06:07:54;;;;;;;;;;;;;;;-145.18;100.00;46631.09;5010573;28;20537;-70
2022/08/10 06:10:20;;;;;;;;;;;;;;;-145.18;100.00;46629.13;5010815;28;19918;-70
2022/08/10 06:12:47;;;;;;;;;;;;;;;-145.18;100.00;46631.09;5010550;28;19922;-70
2022/08/10 06:15:14;;;;;;;;;;;;;;;-145.18;100.00;46633.06;5010470;28;19936;-70
2022/08/10 06:17:39;;;;;;;;;;;;;;;-145.18;100.00;46631.09;5012430;28;19917;-70
2022/08/10 06:20:05;;;;;;;;;;;;;;;-145.18;100.00;46633.06;5014544;28;19932;-69
2022/08/10 06:22:31;;;;;;;;;;;;;;;-145.18;100.00;46629.13;5014538;28;20014;-70
2022/08/10 06:24:58;;;;;;;;;;;;;;;-145.18;100.00;46635.00;5014132;28;19921;-70
2022/08/10 06:27:23;;;;;;;;;;;;;;;-145.18;100.00;46633.06;5013381;28;19917;-70
2022/08/10 06:29:50;;;;;;;;;;;;;;;-145.18;100.00;46631.09;5014123;28;20408;-70
2022/08/10 06:32:16;;;;;;;;;;;;;;;-145.18;100.00;46635.00;5014309;28;20381;-70
2022/08/10 06:34:43;;;;;;;;;;;;;;;-145.18;100.00;46631.09;5012700;28;19921;-69
2022/08/10 06:37:11;;;;;;;;;;;;;;;-145.18;100.00;46631.09;5014318;28;20271;-70
2022/08/10 06:39:36;;;;;;;;;;;;;;;-145.18;100.00;46631.09;5014054;28;20297;-69
2022/08/10 06:42:08;;;;;;;;;;;;;;;-145.18;100.00;46633.06;5014386;28;19921;-70
2022/08/10 06:44:37;;;;;;;;;;;;;;;-145.18;100.00;46633.06;5013903;28;19925;-70
2022/08/10 06:47:03;;;;;;;;;;;;;;;-145.18;100.00;46633.06;5014242;28;19917;-70
2022/08/10 06:49:31;;;;;;;;;;;;;;;-145.18;100.00;46635.00;5013631;28;20416;-70
2022/08/10 06:52:00;;;;;;;;;;;;;;;-145.18;100.00;46635.00;5014235;28;19925;-70
2022/08/10 06:54:27;;;;;;;;;;;;;;;-145.18;100.00;46633.06;5013443;28;20369;-70
2022/08/10 06:56:54;;;;;;;;;;;;;;;-145.18;100.00;46635.00;5014171;28;20390;-70
2022/08/10 06:59:21;;;;;;;;;;;;;;;-145.18;100.00;46638.91;5013197;28;19918;-70
2022/08/10 07:01:52;;;;;;;;;;;;;;;-145.18;100.00;46633.06;5013946;28;19917;-70
2022/08/10 07:04:22;;;;;;;;;;;;;;;-145.18;100.00;46638.91;5013160;28;20402;-70
2022/08/10 07:06:48;;;;;;;;;;;;;;;-145.18;100.00;46640.88;5013984;28;19926;-70
2022/08/10 07:09:14;;;;;;;;;;;;;;;-145.18;100.00;46636.94;5013165;28;20424;-69
2022/08/10 07:11:40;;;;;;;;;;;;;;;-145.18;100.00;46640.88;5014097;28;20000;-70
2022/08/10 07:14:06;;;;;;;;;;;;;;;-145.18;100.00;46642.81;5013517;28;20032;-70
2022/08/10 07:16:32;;;;;;;;;;;;;;;-145.18;100.00;46636.94;5013556;28;19925;-70
2022/08/10 07:18:59;;;;;;;;;;;;;;;-145.18;100.00;46640.88;5011907;28;20329;-70
2022/08/10 07:21:25;;;;;;;;;;;;;;;-145.18;100.00;46638.91;5013405;28;19914;-70
2022/08/10 07:23:52;;;;;;;;;;;;;;;-145.18;100.00;46648.69;5013133;28;19921;-70
2022/08/10 07:26:18;;;;;;;;;;;;;;;-145.18;100.00;46648.69;5013215;28;19922;-71
2022/08/10 07:28:44;;;;;;;;;;;;;;;-145.18;100.00;46646.72;5012621;28;20408;-70
2022/08/10 07:31:10;;;;;;;;;;;;;;;-145.18;100.00;46642.81;5013286;28;19963;-71
2022/08/10 07:33:37;;;;;;;;;;;;;;;-145.18;100.00;46642.81;5012952;28;19971;-71
2022/08/10 07:36:03;;;;;;;;;;;;;;;-145.18;100.00;46642.81;5013321;28;19918;-71
2022/08/10 07:38:30;;;;;;;;;;;;;;;-145.18;100.00;46642.81;5012478;28;19925;-70
2022/08/10 07:40:57;;;;;;;;;;;;;;;-145.18;100.00;46650.63;5013343;28;19918;-71
2022/08/10 07:43:23;;;;;;;;;;;;;;;-145.18;100.00;46652.59;5012843;28;19917;-71
2022/08/10 07:45:49;;;;;;;;;;;;;;;-145.18;100.00;46652.59;5013275;28;19932;-71
2022/08/10 07:48:21;;;;;;;;;;;;;;;-145.18;100.00;46658.44;5012675;28;19921;-71
2022/08/10 07:50:48;;;;;;;;;;;;;;;-145.18;100.00;46656.50;5013147;28;20282;-72
2022/08/10 07:53:19;;;;;;;;;;;;;;;-145.18;100.00;46654.53;5012622;28;19917;-71
2022/08/10 07:55:45;;;;;;;;;;;;;;;-145.18;100.00;46656.50;5013210;28;20020;-72
2022/08/10 07:58:13;;;;;;;;;;;;;;;-145.18;100.00;46652.59;5012377;28;19917;-71
2022/08/10 08:00:38;;;;;;;;;;;;;;;-145.18;100.00;46660.41;5012822;28;20012;-71
2022/08/10 08:03:06;;;;;;;;;;;;;;;-145.18;100.00;46654.53;5011948;28;20008;-72
2022/08/10 08:05:32;;;;;;;;;;;;;;;-145.18;100.00;46652.59;5012518;28;19928;-72
2022/08/10 08:07:58;;;;;;;;;;;;;;;-145.18;100.00;46652.59;5012945;28;19932;-72
2022/08/10 08:10:24;;;;;;;;;;;;;;;-145.18;100.00;46660.41;5012178;28;20313;-72
2022/08/10 08:12:50;;;;;;;;;;;;;;;-145.18;100.00;46654.53;5012625;28;19966;-73
2022/08/10 08:15:18;;;;;;;;;;;;;;;-145.18;100.00;46650.63;5011682;28;19917;-72
2022/08/10 08:17:45;;;;;;;;;;;;;;;-145.18;100.00;46636.94;5012701;28;19917;-72
2022/08/10 08:20:10;;;;;;;;;;;;;;;-145.18;100.00;46588.13;5011942;28;19921;-71
2022/08/10 08:22:36;;;;;;;;;;;;;;;-145.18;100.00;46576.41;5012473;28;20282;-72
2022/08/10 08:25:02;;;;;;;;;;;;;;;-145.18;100.00;46609.59;5011939;28;20374;-72
2022/08/10 08:27:28;;;;;;;;;;;;;;;-145.18;100.00;46551.00;5010563;28;19968;-72
2022/08/10 08:29:54;;;;;;;;;;;;;;;-145.18;100.00;46554.91;5011884;28;19961;-72
2022/08/10 08:32:21;;;;;;;;;;;;;;;-145.18;100.00;46531.47;5012228;28;19956;-72
2022/08/10 08:34:48;;;;;;;;;;;;;;;-145.18;100.00;46531.47;5011767;28;19964;-72
2022/08/10 08:37:14;;;;;;;;;;;;;;;-145.18;100.00;46535.38;5011978;28;19928;-73
2022/08/10 08:39:40;;;;;;;;;;;;;;;-145.18;100.00;46537.34;5011246;28;19913;-72
2022/08/10 08:42:14;;;;;;;;;;;;;;;-145.18;100.00;46539.28;5012100;28;20416;-72
2022/08/10 08:44:39;;;;;;;;;;;;;;;-145.18;100.00;46533.44;5011725;28;19914;-72
2022/08/10 08:47:20;;;;;;;;;;;;;;;-145.18;100.00;46531.47;5011979;28;19968;-73
2022/08/10 08:49:51;;;;;;;;;;;;;;;-145.18;100.00;46533.44;5011668;28;20302;-72
2022/08/10 08:52:35;;;;;;;;;;;;;;;-145.18;100.00;46533.44;5011739;28;19921;-72
2022/08/10 08:55:06;;;;;;;;;;;;;;;-145.18;100.00;46531.47;5011497;28;19918;-72
2022/08/10 08:57:46;;;;;;;;;;;;;;;-145.18;100.00;46525.63;5011711;28;19922;-72
2022/08/10 09:00:12;;;;;;;;;;;;;;;-145.18;100.00;46525.63;5010987;28;19918;-72
2022/08/10 09:02:56;;;;;;;;;;;;;;;-145.18;100.00;46533.44;5011442;28;19926;-72
2022/08/10 09:05:27;;;;;;;;;;;;;;;-145.18;100.00;46541.25;5011277;28;20015;-72
2022/08/10 09:08:04;;;;;;;;;;;;;;;-145.18;100.00;46547.09;5011849;28;19984;-72
2022/08/10 09:10:35;;;;;;;;;;;;;;;-145.18;100.00;46525.63;5011217;28;19922;-72
2022/08/10 09:13:13;;;;;;;;;;;;;;;-145.18;100.00;46525.63;5011571;28;19969;-72
2022/08/10 09:15:50;;;;;;;;;;;;;;;-145.18;100.00;46535.38;5011351;28;19928;-72
2022/08/10 09:18:30;;;;;;;;;;;;;;;-145.18;100.00;46562.72;5011265;28;20008;-72
2022/08/10 09:21:08;;;;;;;;;;;;;;;-145.18;100.00;46554.91;5011794;28;20051;-72
2022/08/10 09:23:39;;;;;;;;;;;;;;;-145.18;100.00;46603.75;5010820;28;20445;-72
2022/08/10 09:26:30;;;;;;;;;;;;;;;-145.18;100.00;46588.13;5011580;28;19917;-72
2022/08/10 09:28:58;;;;;;;;;;;;;;;-145.18;100.00;46728.75;5008922;28;19925;-73
2022/08/10 09:31:26;;;;;;;;;;;;;;;-145.18;100.00;46828.38;5011291;28;19952;-73
2022/08/10 09:34:02;;;;;;;;;;;;;;;-145.18;100.00;46984.66;5010915;28;19943;-72
2022/08/10 09:36:45;;;;;;;;;;;;;;;-145.18;100.00;47086.25;5011111;28;19971;-72
2022/08/10 09:39:16;;;;;;;;;;;;;;;-145.18;100.00;47105.78;5010998;28;19929;-72
2022/08/10 09:41:47;;;;;;;;;;;;;;;-145.18;100.00;46957.31;5011500;28;20370;-72
2022/08/10 09:44:25;;;;;;;;;;;;;;;-145.18;100.00;47109.69;5010770;28;19921;-72
2022/08/10 09:46:50;;;;;;;;;;;;;;;-145.18;100.00;46898.72;5010978;28;19939;-72
2022/08/10 09:49:19;;;;;;;;;;;;;;;-145.18;100.00;47094.06;5010593;28;19921;-72
2022/08/10 09:51:44;;;;;;;;;;;;;;;-145.18;100.00;47039.34;5013398;28;19917;-72
2022/08/10 09:54:12;;;;;;;;;;;;;;;-145.18;100.00;47010.06;5014876;28;20408;-72
2022/08/10 09:57:02;;;;;;;;;;;;;;;-145.18;100.00;47043.28;5014808;28;19933;-72
2022/08/10 09:59:40;;;;;;;;;;;;;;;-145.18;100.00;46984.66;5014540;28;19980;-72
2022/08/10 10:02:13;;;;;;;;;;;;;;;-145.18;100.00;46976.84;5014921;28;19970;-70
2022/08/10 10:04:48;;;;;;;;;;;;;;;-145.18;100.00;46971.00;5014632;28;19997;-72
2022/08/10 10:07:22;;;;;;;;;;;;;;;-145.18;100.00;46976.84;5014956;28;19924;-72
2022/08/10 10:09:47;;;;;;;;;;;;;;;-145.18;100.00;46976.84;5014728;28;20416;-72
2022/08/10 10:12:24;;;;;;;;;;;;;;;-145.18;100.00;46965.13;5014777;28;19923;-72
2022/08/10 10:17:54;;;;;;;;;;;;;;;-145.18;100.00;46953.41;5014595;28;19924;-72
2022/08/10 10:20:23;;;;;;;;;;;;;;;-145.18;100.00;46955.34;5014086;28;19929;-72
2022/08/10 10:22:56;;;;;;;;;;;;;;;-145.18;100.00;46943.63;5015030;28;20059;-72
2022/08/10 10:25:21;;;;;;;;;;;;;;;-145.18;100.00;46953.41;5014012;28;19917;-72
2022/08/10 10:27:51;;;;;;;;;;;;;;;-145.18;100.00;46937.78;5014694;28;19921;-72
2022/08/10 10:30:18;;;;;;;;;;;;;;;-145.18;100.00;46933.88;5013941;28;20367;-72
2022/08/10 10:33:07;;;;;;;;;;;;;;;-145.18;100.00;46939.72;5014481;28;19928;-72
2022/08/10 10:35:32;;;;;;;;;;;;;;;-145.18;100.00;46931.91;5013819;28;19929;-72
2022/08/10 10:37:59;;;;;;;;;;;;;;;-145.18;100.00;46935.81;5014561;28;19918;-70
2022/08/10 10:40:26;;;;;;;;;;;;;;;-145.18;100.00;46929.97;5013804;28;19917;-73
2022/08/10 10:43:10;;;;;;;;;;;;;;;-145.18;100.00;46929.97;5014306;28;20334;-73
2022/08/10 10:45:43;;;;;;;;;;;;;;;-145.18;100.00;46920.19;5013716;28;19922;-73
2022/08/10 10:48:18;;;;;;;;;;;;;;;-145.18;100.00;46937.78;5014438;28;20336;-73
2022/08/10 10:50:54;;;;;;;;;;;;;;;-145.18;100.00;46922.16;5013767;28;19969;-73
2022/08/10 10:53:38;;;;;;;;;;;;;;;-145.18;100.00;46916.28;5013828;28;19941;-73
2022/08/10 10:56:15;;;;;;;;;;;;;;;-145.18;100.00;46922.16;5014204;28;19933;-72
2022/08/10 10:58:47;;;;;;;;;;;;;;;-145.18;100.00;46910.44;5013508;28;19918;-73
2022/08/10 11:01:21;;;;;;;;;;;;;;;-145.18;100.00;46916.28;5013816;28;19914;-72
2022/08/10 11:04:02;;;;;;;;;;;;;;;-145.18;100.00;46914.34;5012782;28;19928;-72
2022/08/10 11:06:27;;;;;;;;;;;;;;;-145.18;100.00;46910.44;5013645;28;20410;-72
2022/08/10 11:08:56;;;;;;;;;;;;;;;-145.18;100.00;46914.34;5013519;28;19917;-72
2022/08/10 11:11:24;;;;;;;;;;;;;;;-145.18;100.00;46902.63;5013455;28;19921;-72
2022/08/10 11:13:57;;;;;;;;;;;;;;;-145.18;100.00;46908.47;5013467;28;19928;-72
2022/08/10 11:16:34;;;;;;;;;;;;;;;-145.18;100.00;46920.19;5013649;28;20342;-72
2022/08/10 11:19:32;;;;;;;;;;;;;;;-145.18;100.00;46902.63;5013292;28;19953;-73
2022/08/10 11:22:16;;;;;;;;;;;;;;;-145.18;100.00;46894.81;4979953;28;20290;-72
2022/08/10 11:25:00;;;;;;;;;;;;;;;-145.18;94.88;46896.75;5012902;28;20028;-73
2022/08/10 11:27:34;;;;;;;;;;;;;;;-145.18;98.98;46894.81;5013388;28;20389;-73
2022/08/10 11:30:05;;;;;;;;;;;;;;;-145.18;93.65;46890.91;5013133;28;19924;-73
2022/08/10 11:32:45;;;;;;;;;;;;;;;-145.18;98.22;46887.00;5013040;28;19923;-73
2022/08/10 11:35:17;;;;;;;;;;;;;;;-145.18;93.39;46887.00;5013115;28;20294;-73
2022/08/10 11:37:55;;;;;;;;;;;;;;;-145.18;94.90;46885.03;5013327;28;19924;-71
2022/08/10 11:40:25;;;;;;;;;;;;;;;-145.18;83.16;46875.28;5012474;28;20016;-71
2022/08/10 11:43:10;;;;;;;;;;;;;;;-145.18;77.11;46861.59;5013335;28;19997;-71
2022/08/10 11:45:40;;;;;;;;;;;;;;;-145.18;81.25;46892.84;5012166;28;20385;-70
2022/08/10 11:48:11;;;;;;;;;;;;;;;-145.18;83.88;46888.94;5013209;28;19952;-72
2022/08/10 11:50:46;;;;;;;;;;;;;;;-145.18;78.58;46883.09;5010960;28;19917;-70
2022/08/10 11:53:20;;;;;;;;;;;;;;;-145.18;76.55;46885.03;5013001;28;19965;-71
2022/08/10 11:55:51;;;;;;;;;;;;;;;-145.18;84.30;46877.22;5012702;28;19960;-71
2022/08/10 12:01:05;;;;;;;;;;;;;;;-145.18;76.63;46867.44;5012634;28;20286;-73
2022/08/10 12:03:31;;;;;;;;;;;;;;;-145.18;71.26;46857.69;5012399;28;19925;-71
2022/08/10 12:05:57;;;;;;;;;;;;;;;-145.18;73.27;46855.72;5012399;28;20319;-71
2022/08/10 12:08:24;;;;;;;;;;;;;;;-145.18;69.70;46853.78;5012435;28;19914;-71
2022/08/10 12:10:49;;;;;;;;;;;;;;;-145.18;70.03;46845.97;5012285;28;19922;-71
2022/08/10 12:13:21;;;;;;;;;;;;;;;-145.18;73.30;46847.91;5011546;28;19925;-73
2022/08/10 12:16:04;;;;;;;;;;;;;;;-145.18;70.80;46851.81;5011143;28;19917;-71
2022/08/10 12:18:32;;;;;;;;;;;;;;;-145.18;69.56;46840.09;5012057;28;19984;-73
2022/08/10 12:21:01;;;;;;;;;;;;;;;-145.18;67.68;46824.47;5012272;28;20302;-71
2022/08/10 12:23:37;;;;;;;;;;;;;;;-145.18;69.18;46834.25;5012335;28;19968;-71
2022/08/10 12:26:12;;;;;;;;;;;;;;;-145.18;70.40;46840.09;5011982;28;19924;-71
2022/08/10 12:28:39;;;;;;;;;;;;;;;-145.18;74.42;46853.78;5012230;28;20382;-71
2022/08/10 12:31:06;;;;;;;;;;;;;;;-145.18;67.50;46855.72;5012188;28;19917;-71
2022/08/10 12:33:36;;;;;;;;;;;;;;;-145.18;68.51;46840.09;5012098;28;19917;-71
2022/08/10 12:36:05;;;;;;;;;;;;;;;-145.18;70.70;46842.06;5011743;28;20319;-71